Rona II — MPKR2 — position and weather

sailwx.info

Track history (hours):
 
Tides and Currents Weather Stations Pressure Air Temp Water Temp Dewpoint Dewpoint Depression Visibility Wind Speed Wind Dir Waves Ship Positions

Rona II

Last reported at 2014-Aug-01 13:30 UTC. Time now 2014-Aug-01 14:00 UTC.
Position N 55°28' E 008°27'.

Length 22 m.

Type: Sailing vessel. MMSI: 232714000.

Date/timePositionNaut miles runAvg speedWind from/ knotsBaromVisibWave heightAir tempDewpointWater temp
2014-Aug-01 13:30N 55°28' E 008°27'0 0.0
2014-Aug-01 12:30N 55°28' E 008°27'0 0.0
2014-Aug-01 11:33N 55°28' E 008°27'0 0.0
2014-Aug-01 10:33N 55°28' E 008°27'0 0.0
2014-Aug-01 09:33N 55°28' E 008°27'0 0.0
2014-Aug-01 08:33N 55°28' E 008°27'0 0.0
2014-Aug-01 07:33N 55°28' E 008°27'0 0.0
2014-Aug-01 06:24N 55°28' E 008°27'0 0.0
2014-Aug-01 05:33N 55°28' E 008°27'0 0.0
2014-Aug-01 04:21N 55°28' E 008°27'0 0.0
2014-Aug-01 03:27N 55°28' E 008°27'0 0.0
2014-Aug-01 02:24N 55°28' E 008°27'0 0.0
2014-Aug-01 01:30N 55°28' E 008°27'0 0.0
2014-Aug-01 00:27N 55°28' E 008°27'0 0.0
2014-Jul-31 23:27N 55°28' E 008°27'0 0.0
2014-Jul-31 22:30N 55°28' E 008°27'0 0.0
2014-Jul-31 21:33N 55°28' E 008°27'0 0.0
2014-Jul-31 20:30N 55°28' E 008°27'0 0.0
2014-Jul-31 19:21N 55°28' E 008°27'0 0.0
2014-Jul-31 18:21N 55°28' E 008°27'0 0.0
2014-Jul-31 17:33N 55°28' E 008°27'0 0.0
2014-Jul-31 16:24N 55°28' E 008°27'0 0.0
2014-Jul-31 15:27N 55°28' E 008°27'0 0.0
2014-Jul-31 14:27N 55°28' E 008°27'0 0.0
2014-Jul-31 13:30N 55°28' E 008°27'0 0.4
2014-Jul-31 12:33N 55°27' E 008°26'35 3.5
2014-Jul-31 02:30N 55°13' E 007°30'8 7.8
2014-Jul-31 01:33N 55°15' E 007°17'8 8.1
2014-Jul-31 00:33N 55°17' E 007°03'  
2014-Jul-27 11:25N 60°25' E 005°17'2 2.0
2014-Jul-27 10:33N 60°24' E 005°19'0 0.0
2014-Jul-27 09:33N 60°24' E 005°19'0 0.0
2014-Jul-27 08:33N 60°24' E 005°19'0 0.0
2014-Jul-27 07:31N 60°24' E 005°19'  
2014-Jul-24 09:23N 60°24' E 005°19'1 1.2
2014-Jul-24 08:33N 60°24' E 005°18'  
Track history (hours):
 
Tides and Currents Weather Stations Pressure Air Temp Water Temp Dewpoint Dewpoint Depression Visibility Wind Speed Wind Dir Waves Ship Positions

Rona II

Last reported at 2014-Aug-01 13:30 UTC. Time now 2014-Aug-01 14:00 UTC.
Position N 55°28' E 008°27'.

Length 22 m.

Type: Sailing vessel. MMSI: 232714000.

Date/timePositionNaut miles runAvg speedWind from/ knotsBaromVisibWave heightAir tempDewpointWater temp
2014-Aug-01 13:30N 55°28' E 008°27'0 0.0
2014-Aug-01 12:30N 55°28' E 008°27'0 0.0
2014-Aug-01 11:33N 55°28' E 008°27'0 0.0
2014-Aug-01 10:33N 55°28' E 008°27'0 0.0
2014-Aug-01 09:33N 55°28' E 008°27'0 0.0
2014-Aug-01 08:33N 55°28' E 008°27'0 0.0
2014-Aug-01 07:33N 55°28' E 008°27'0 0.0
2014-Aug-01 06:24N 55°28' E 008°27'0 0.0
2014-Aug-01 05:33N 55°28' E 008°27'0 0.0
2014-Aug-01 04:21N 55°28' E 008°27'0 0.0
2014-Aug-01 03:27N 55°28' E 008°27'0 0.0
2014-Aug-01 02:24N 55°28' E 008°27'0 0.0
2014-Aug-01 01:30N 55°28' E 008°27'0 0.0
2014-Aug-01 00:27N 55°28' E 008°27'0 0.0
2014-Jul-31 23:27N 55°28' E 008°27'0 0.0
2014-Jul-31 22:30N 55°28' E 008°27'0 0.0
2014-Jul-31 21:33N 55°28' E 008°27'0 0.0
2014-Jul-31 20:30N 55°28' E 008°27'0 0.0
2014-Jul-31 19:21N 55°28' E 008°27'0 0.0
2014-Jul-31 18:21N 55°28' E 008°27'0 0.0
2014-Jul-31 17:33N 55°28' E 008°27'0 0.0
2014-Jul-31 16:24N 55°28' E 008°27'0 0.0
2014-Jul-31 15:27N 55°28' E 008°27'0 0.0
2014-Jul-31 14:27N 55°28' E 008°27'0 0.0
2014-Jul-31 13:30N 55°28' E 008°27'0 0.4
2014-Jul-31 12:33N 55°27' E 008°26'35 3.5
2014-Jul-31 02:30N 55°13' E 007°30'8 7.8
2014-Jul-31 01:33N 55°15' E 007°17'8 8.1
2014-Jul-31 00:33N 55°17' E 007°03'  
2014-Jul-27 11:25N 60°25' E 005°17'2 2.0
2014-Jul-27 10:33N 60°24' E 005°19'0 0.0
2014-Jul-27 09:33N 60°24' E 005°19'0 0.0
2014-Jul-27 08:33N 60°24' E 005°19'0 0.0
2014-Jul-27 07:31N 60°24' E 005°19'  
2014-Jul-24 09:23N 60°24' E 005°19'1 1.2
2014-Jul-24 08:33N 60°24' E 005°18'  

Dump ship's entire track history